createdAt,value
2022-11-29T00:01:52.271Z,78.61
2022-11-29T00:04:55.800Z,78.52
2022-11-29T00:07:59.214Z,78.45
2022-11-29T00:11:06.249Z,78.50
2022-11-29T00:14:11.813Z,78.44
2022-11-29T00:17:15.311Z,78.61
2022-11-29T00:20:19.037Z,78.60
2022-11-29T00:23:22.517Z,78.42
2022-11-29T00:26:25.860Z,78.35
2022-11-29T00:29:30.329Z,78.34
2022-11-29T00:32:33.887Z,78.52
2022-11-29T00:35:37.489Z,78.50
2022-11-29T00:38:41.753Z,78.65
2022-11-29T00:41:45.294Z,78.52
2022-11-29T00:44:48.651Z,78.55
2022-11-29T00:47:52.038Z,78.61
2022-11-29T00:50:55.555Z,78.54
2022-11-29T00:53:58.935Z,78.55
2022-11-29T00:57:02.389Z,78.58
2022-11-29T01:00:08.691Z,78.68
2022-11-29T01:03:11.256Z,78.68
2022-11-29T01:06:16.706Z,78.67
2022-11-29T01:09:20.408Z,78.80
2022-11-29T01:12:24.114Z,78.77
2022-11-29T01:15:27.713Z,78.51
2022-11-29T01:18:31.937Z,78.72
2022-11-29T01:21:35.581Z,78.77
2022-11-29T01:24:38.932Z,78.89
2022-11-29T01:27:42.871Z,78.88
2022-11-29T01:30:46.484Z,78.79
2022-11-29T01:33:52.389Z,78.76
2022-11-29T01:36:55.706Z,78.85
2022-11-29T01:39:59.204Z,78.85
2022-11-29T01:43:02.712Z,78.85
2022-11-29T01:46:06.260Z,78.80
2022-11-29T01:49:14.166Z,78.77
2022-11-29T01:52:21.204Z,78.73
2022-11-29T01:55:25.039Z,78.76
2022-11-29T01:58:29.739Z,78.67
2022-11-29T02:01:34.136Z,78.72
2022-11-29T02:04:39.445Z,78.75
2022-11-29T02:07:46.538Z,78.81
2022-11-29T02:11:11.417Z,78.89
2022-11-29T02:14:36.401Z,78.97
2022-11-29T02:17:55.594Z,79.11
2022-11-29T02:21:20.437Z,78.96
2022-11-29T02:24:52.031Z,78.84
2022-11-29T02:28:30.099Z,78.92
2022-11-29T02:32:14.709Z,78.97
2022-11-29T02:35:35.600Z,79.01
2022-11-29T02:39:11.470Z,79.08
2022-11-29T02:42:56.629Z,78.92
2022-11-29T02:46:15.853Z,79.01
2022-11-29T02:49:31.811Z,79.12
2022-11-29T02:52:45.337Z,78.96
2022-11-29T02:55:56.904Z,79.05
2022-11-29T02:59:05.506Z,78.98
2022-11-29T03:02:22.739Z,78.97
2022-11-29T03:05:35.616Z,78.97
2022-11-29T03:08:46.271Z,78.93
2022-11-29T03:11:56.952Z,78.85
2022-11-29T03:15:12.943Z,78.89
2022-11-29T03:18:28.505Z,78.85
2022-11-29T03:21:43.702Z,78.93
2022-11-29T03:24:54.985Z,78.97
2022-11-29T03:28:04.797Z,79.08
2022-11-29T03:31:16.211Z,79.13
2022-11-29T03:34:30.260Z,78.92
2022-11-29T03:37:43.192Z,78.90
2022-11-29T03:40:54.920Z,78.98
2022-11-29T03:44:06.079Z,79.05
2022-11-29T03:47:13.942Z,78.92
2022-11-29T03:50:23.589Z,78.87
2022-11-29T03:53:36.028Z,78.82
2022-11-29T03:56:41.462Z,78.85
2022-11-29T03:59:56.035Z,78.80
2022-11-29T04:03:32.919Z,78.84
2022-11-29T04:06:59.030Z,78.93
2022-11-29T04:10:17.499Z,78.66
2022-11-29T04:13:45.989Z,78.57
2022-11-29T04:17:24.778Z,78.52
2022-11-29T04:20:48.802Z,78.71
2022-11-29T04:24:19.130Z,78.75
2022-11-29T04:27:48.072Z,78.81
2022-11-29T04:31:02.229Z,78.82
2022-11-29T04:34:25.950Z,78.71
2022-11-29T04:37:58.766Z,78.77
2022-11-29T04:41:25.345Z,78.71
2022-11-29T04:44:45.762Z,78.64
2022-11-29T04:48:02.710Z,78.80
2022-11-29T04:51:18.795Z,78.67
2022-11-29T04:54:25.877Z,78.74
2022-11-29T04:57:37.063Z,78.79
2022-11-29T05:00:50.395Z,78.63
2022-11-29T05:04:01.269Z,78.80
2022-11-29T05:07:11.120Z,78.70
2022-11-29T05:10:24.860Z,78.79
2022-11-29T05:13:34.303Z,78.71
2022-11-29T05:17:04.301Z,78.72
2022-11-29T05:20:22.225Z,78.59
2022-11-29T05:23:54.809Z,78.64
2022-11-29T05:27:05.107Z,78.66
2022-11-29T05:30:14.669Z,78.56
2022-11-29T05:33:37.073Z,78.58
2022-11-29T05:36:50.112Z,78.48
2022-11-29T05:40:14.817Z,78.50
2022-11-29T05:43:37.775Z,78.47
2022-11-29T05:46:53.362Z,78.43
2022-11-29T05:50:05.439Z,78.52
2022-11-29T05:53:21.149Z,78.52
2022-11-29T05:56:36.836Z,78.53
2022-11-29T05:59:42.914Z,78.44
2022-11-29T06:02:57.331Z,78.38
2022-11-29T06:06:06.285Z,78.51
2022-11-29T06:09:16.852Z,78.56
2022-11-29T06:12:23.356Z,78.52
2022-11-29T06:15:48.086Z,78.41
2022-11-29T06:19:23.263Z,78.61
2022-11-29T06:22:49.910Z,78.71
2022-11-29T06:26:10.829Z,78.62
2022-11-29T06:29:29.572Z,78.77
2022-11-29T06:32:40.271Z,78.83
2022-11-29T06:35:48.239Z,78.75
2022-11-29T06:38:53.131Z,78.78
2022-11-29T06:41:56.874Z,78.86
2022-11-29T06:45:01.662Z,78.84
2022-11-29T06:48:10.225Z,78.88
2022-11-29T06:51:22.241Z,78.90
2022-11-29T06:54:38.759Z,78.82
2022-11-29T06:58:05.091Z,78.88
2022-11-29T07:01:22.785Z,78.79
2022-11-29T07:04:46.340Z,78.72
2022-11-29T07:07:52.545Z,78.76
2022-11-29T07:10:59.050Z,78.88
2022-11-29T07:14:03.784Z,78.81
2022-11-29T07:17:15.558Z,79.00
2022-11-29T07:20:27.357Z,78.92
2022-11-29T07:23:35.406Z,79.15
2022-11-29T07:26:46.253Z,79.07
2022-11-29T07:30:04.522Z,78.93
2022-11-29T07:33:16.894Z,79.16
2022-11-29T07:36:31.857Z,79.17
2022-11-29T07:39:47.756Z,79.28
2022-11-29T07:43:01.285Z,79.34
2022-11-29T07:46:04.895Z,79.24
2022-11-29T07:49:11.010Z,79.20
2022-11-29T07:52:16.405Z,79.12
2022-11-29T07:55:22.581Z,79.04
2022-11-29T07:58:25.988Z,79.17
2022-11-29T08:01:29.428Z,79.40
2022-11-29T08:04:32.871Z,79.41
2022-11-29T08:07:37.614Z,79.34
2022-11-29T08:10:41.098Z,79.42
2022-11-29T08:13:44.599Z,79.54
2022-11-29T08:16:48.083Z,79.47
2022-11-29T08:19:51.599Z,79.51
2022-11-29T08:22:56.318Z,79.59
2022-11-29T08:26:01.099Z,79.63
2022-11-29T08:29:04.564Z,79.66
2022-11-29T08:32:08.475Z,79.72
2022-11-29T08:35:11.977Z,79.86
2022-11-29T08:38:15.505Z,79.92
2022-11-29T08:41:19.229Z,80.01
2022-11-29T08:44:22.685Z,80.01
2022-11-29T08:47:37.967Z,80.09
2022-11-29T08:50:41.363Z,80.27
2022-11-29T08:53:45.972Z,80.29
2022-11-29T08:57:30.939Z,80.34
2022-11-29T09:00:15.124Z,80.52
2022-11-29T09:03:37.862Z,80.47
2022-11-29T09:06:43.808Z,80.51
2022-11-29T09:09:47.881Z,80.67
2022-11-29T09:12:51.228Z,80.60
2022-11-29T09:15:54.627Z,80.70
2022-11-29T09:18:58.163Z,80.73
2022-11-29T09:22:02.361Z,80.95
2022-11-29T09:25:07.473Z,80.87
2022-11-29T09:28:12.045Z,81.01
2022-11-29T09:31:16.465Z,81.16
2022-11-29T09:34:19.813Z,81.03
2022-11-29T09:37:23.238Z,81.05
2022-11-29T09:40:33.730Z,81.13
2022-11-29T09:43:48.187Z,81.17
2022-11-29T09:47:03.850Z,81.36
2022-11-29T09:50:22.712Z,81.24
2022-11-29T09:53:50.274Z,81.51
2022-11-29T09:56:55.575Z,81.56
2022-11-29T10:00:03.015Z,81.52
2022-11-29T10:03:16.652Z,81.52
2022-11-29T10:06:23.667Z,81.65
2022-11-29T10:09:33.949Z,81.59
2022-11-29T10:12:44.225Z,81.81
2022-11-29T10:15:53.529Z,81.90
2022-11-29T10:19:04.863Z,82.02
2022-11-29T10:22:16.910Z,82.00
2022-11-29T10:25:25.165Z,81.96
2022-11-29T10:28:32.021Z,82.02
2022-11-29T10:31:39.500Z,82.11
2022-11-29T10:34:44.062Z,82.20
2022-11-29T10:38:07.804Z,82.22
2022-11-29T10:41:18.988Z,82.11
2022-11-29T10:44:23.062Z,82.17
2022-11-29T10:47:26.811Z,82.31
2022-11-29T10:50:33.361Z,82.52
2022-11-29T10:53:38.106Z,82.49
2022-11-29T10:56:43.767Z,82.58
2022-11-29T11:00:00.792Z,82.51
2022-11-29T11:03:17.684Z,82.49
2022-11-29T11:06:23.416Z,82.57
2022-11-29T11:09:33.618Z,82.83
2022-11-29T11:12:37.190Z,82.91
2022-11-29T11:15:40.680Z,82.70
2022-11-29T11:18:45.065Z,82.87
2022-11-29T11:21:48.681Z,82.86
2022-11-29T11:24:59.062Z,82.84
2022-11-29T11:28:17.514Z,82.94
2022-11-29T11:31:30.988Z,83.02
2022-11-29T11:34:35.985Z,82.97
2022-11-29T11:37:39.412Z,82.88
2022-11-29T11:40:43.222Z,83.13
2022-11-29T11:43:54.489Z,83.10
2022-11-29T11:46:59.153Z,82.88
2022-11-29T11:50:12.539Z,82.81
2022-11-29T11:53:24.207Z,82.88
2022-11-29T11:56:35.619Z,83.14
2022-11-29T11:59:39.325Z,83.16
2022-11-29T12:02:45.307Z,83.07
2022-11-29T12:05:52.160Z,82.72
2022-11-29T12:09:01.209Z,82.67
2022-11-29T12:12:14.053Z,82.73
2022-11-29T12:15:20.833Z,82.87
2022-11-29T12:18:34.227Z,82.69
2022-11-29T12:21:43.125Z,82.81
2022-11-29T12:24:57.095Z,82.60
2022-11-29T12:28:00.474Z,82.56
2022-11-29T12:31:17.651Z,82.81
2022-11-29T12:34:31.182Z,82.69
2022-11-29T12:37:43.081Z,82.68
2022-11-29T12:40:54.851Z,82.63
2022-11-29T12:44:10.678Z,82.62
2022-11-29T12:47:39.992Z,82.40
2022-11-29T12:50:58.607Z,82.49
2022-11-29T12:54:21.018Z,82.61
2022-11-29T12:57:36.667Z,82.60
2022-11-29T13:00:49.455Z,82.55
2022-11-29T13:03:58.896Z,82.50
2022-11-29T13:07:11.612Z,82.49
2022-11-29T13:10:28.521Z,82.41
2022-11-29T13:13:39.653Z,82.53
2022-11-29T13:16:52.825Z,82.63
2022-11-29T13:20:03.404Z,82.38
2022-11-29T13:23:16.779Z,82.28
2022-11-29T13:26:22.678Z,82.30
2022-11-29T13:29:28.181Z,82.20
2022-11-29T13:32:35.993Z,82.35
2022-11-29T13:35:48.755Z,82.41
2022-11-29T13:39:04.141Z,82.41
2022-11-29T13:42:16.858Z,82.33
2022-11-29T13:45:23.929Z,82.33
2022-11-29T13:48:48.538Z,82.51
2022-11-29T13:52:05.419Z,82.54
2022-11-29T13:55:28.416Z,82.77
2022-11-29T13:58:36.110Z,82.57
2022-11-29T14:01:48.271Z,82.47
2022-11-29T14:04:52.965Z,82.70
2022-11-29T14:08:34.109Z,82.75
2022-11-29T14:11:59.442Z,82.47
2022-11-29T14:15:15.129Z,82.82
2022-11-29T14:18:48.225Z,82.84
2022-11-29T14:22:30.024Z,82.84
2022-11-29T14:25:51.225Z,82.88
2022-11-29T14:28:55.558Z,82.94
2022-11-29T14:31:59.798Z,82.93
2022-11-29T14:35:15.569Z,82.99
2022-11-29T14:38:30.954Z,83.06
2022-11-29T14:41:49.554Z,83.20
2022-11-29T14:44:55.521Z,83.15
2022-11-29T14:47:59.696Z,83.09
2022-11-29T14:51:11.572Z,83.08
2022-11-29T14:54:18.979Z,83.22
2022-11-29T14:57:53.850Z,83.15
2022-11-29T15:01:10.727Z,83.22
2022-11-29T15:04:15.550Z,83.23
2022-11-29T15:07:27.593Z,83.25
2022-11-29T15:10:35.869Z,83.28
2022-11-29T15:13:48.893Z,83.31
2022-11-29T15:17:17.227Z,83.37
2022-11-29T15:20:39.525Z,83.38
2022-11-29T15:23:44.366Z,83.43
2022-11-29T15:26:57.653Z,83.71
2022-11-29T15:30:19.837Z,83.67
2022-11-29T15:33:25.073Z,83.64
2022-11-29T15:36:28.566Z,83.65
2022-11-29T15:39:34.122Z,83.79
2022-11-29T15:42:43.296Z,83.68
2022-11-29T15:45:51.401Z,83.68
2022-11-29T15:48:55.404Z,83.63
2022-11-29T15:52:05.047Z,83.69
2022-11-29T15:55:14.269Z,83.69
2022-11-29T15:58:19.196Z,83.71
2022-11-29T16:01:22.908Z,83.82
2022-11-29T16:04:27.069Z,83.80
2022-11-29T16:07:33.583Z,83.81
2022-11-29T16:10:42.891Z,84.02
2022-11-29T16:14:03.946Z,83.99
2022-11-29T16:17:08.415Z,83.99
2022-11-29T16:20:25.372Z,83.95
2022-11-29T16:23:34.948Z,84.08
2022-11-29T16:26:41.344Z,84.04
2022-11-29T16:29:44.888Z,83.98
2022-11-29T16:32:53.709Z,83.99
2022-11-29T16:36:07.191Z,84.08
2022-11-29T16:39:20.473Z,84.08
2022-11-29T16:42:26.197Z,84.08
2022-11-29T16:45:34.733Z,84.15
2022-11-29T16:48:38.361Z,84.17
2022-11-29T16:51:47.797Z,84.10
2022-11-29T16:54:51.585Z,84.07
2022-11-29T16:57:55.005Z,84.13
2022-11-29T17:00:58.596Z,84.19
2022-11-29T17:04:02.337Z,84.17
2022-11-29T17:07:08.154Z,84.28
2022-11-29T17:10:15.975Z,84.38
2022-11-29T17:13:19.416Z,84.28
2022-11-29T17:16:23.938Z,84.19
2022-11-29T17:19:29.905Z,84.24
2022-11-29T17:22:33.461Z,84.34
2022-11-29T17:25:37.166Z,84.28
2022-11-29T17:28:41.994Z,84.20
2022-11-29T17:31:46.604Z,84.29
2022-11-29T17:34:50.128Z,84.47
2022-11-29T17:37:53.525Z,84.42
2022-11-29T17:40:57.029Z,84.38
2022-11-29T17:44:01.174Z,84.29
2022-11-29T17:47:04.754Z,84.44
2022-11-29T17:50:10.357Z,84.50
2022-11-29T17:53:13.797Z,84.57
2022-11-29T17:56:18.902Z,84.53
2022-11-29T17:59:22.340Z,84.42
2022-11-29T18:02:25.759Z,84.54
2022-11-29T18:05:34.312Z,84.53
2022-11-29T18:08:39.320Z,84.52
2022-11-29T18:11:48.693Z,84.59
2022-11-29T18:14:53.156Z,84.61
2022-11-29T18:17:56.657Z,84.66
2022-11-29T18:21:00.970Z,84.49
2022-11-29T18:24:06.273Z,84.53
2022-11-29T18:27:09.719Z,84.78
2022-11-29T18:30:14.569Z,85.02
2022-11-29T18:33:18.054Z,84.87
2022-11-29T18:36:23.202Z,84.97
2022-11-29T18:39:26.589Z,85.10
2022-11-29T18:42:30.027Z,84.94
2022-11-29T18:45:37.426Z,84.93
2022-11-29T18:48:41.650Z,84.85
2022-11-29T18:51:46.498Z,84.94
2022-11-29T18:54:50.038Z,85.07
2022-11-29T18:57:53.719Z,85.19
2022-11-29T19:01:03.998Z,85.00
2022-11-29T19:04:08.319Z,84.76
2022-11-29T19:07:11.606Z,84.94
2022-11-29T19:10:14.842Z,85.10
2022-11-29T19:13:18.418Z,85.14
2022-11-29T19:16:22.476Z,85.22
2022-11-29T19:19:26.339Z,85.34
2022-11-29T19:22:30.493Z,85.27
2022-11-29T19:25:35.741Z,85.34
2022-11-29T19:28:40.171Z,85.48
2022-11-29T19:31:44.022Z,85.50
2022-11-29T19:34:47.379Z,85.46
2022-11-29T19:37:50.985Z,85.42
2022-11-29T19:40:54.436Z,85.42
2022-11-29T19:43:59.006Z,85.49
2022-11-29T19:47:02.467Z,85.32
2022-11-29T19:50:08.297Z,85.31
2022-11-29T19:53:11.821Z,85.18
2022-11-29T19:56:16.733Z,85.38
2022-11-29T19:59:20.096Z,85.45
2022-11-29T20:02:23.683Z,85.55
2022-11-29T20:05:27.162Z,85.23
2022-11-29T20:08:31.014Z,85.47
2022-11-29T20:11:34.571Z,85.45
2022-11-29T20:14:38.071Z,85.60
2022-11-29T20:17:41.510Z,85.60
2022-11-29T20:20:44.869Z,85.65
2022-11-29T20:23:48.382Z,85.70
2022-11-29T20:26:51.858Z,85.87
2022-11-29T20:29:55.264Z,85.88
2022-11-29T20:32:59.649Z,85.69
2022-11-29T20:36:20.254Z,85.71
2022-11-29T20:39:31.786Z,85.42
2022-11-29T20:42:49.948Z,85.57
2022-11-29T20:45:54.323Z,85.60
2022-11-29T20:49:04.686Z,85.73
2022-11-29T20:52:19.108Z,85.88
2022-11-29T20:55:22.916Z,85.95
2022-11-29T20:58:26.663Z,85.98
2022-11-29T21:01:30.004Z,86.07
2022-11-29T21:04:33.485Z,85.99
2022-11-29T21:07:37.015Z,86.05
2022-11-29T21:10:40.593Z,85.82
2022-11-29T21:13:45.195Z,85.71
2022-11-29T21:16:49.418Z,85.68
2022-11-29T21:19:54.273Z,86.03
2022-11-29T21:23:04.938Z,86.16
2022-11-29T21:26:14.694Z,85.81
2022-11-29T21:29:20.247Z,86.07
2022-11-29T21:32:26.208Z,86.04
2022-11-29T21:35:29.627Z,85.99
2022-11-29T21:38:33.342Z,86.16
2022-11-29T21:41:37.096Z,86.19
2022-11-29T21:44:40.397Z,86.01
2022-11-29T21:47:44.524Z,85.91
2022-11-29T21:50:50.968Z,86.05
2022-11-29T21:53:54.330Z,86.12
2022-11-29T21:56:57.864Z,86.15
2022-11-29T22:00:01.401Z,86.30
2022-11-29T22:03:04.961Z,86.09
2022-11-29T22:06:10.642Z,85.65
2022-11-29T22:09:14.561Z,85.77
2022-11-29T22:12:33.900Z,85.64
2022-11-29T22:15:38.145Z,85.91
2022-11-29T22:18:41.872Z,86.05
2022-11-29T22:21:46.613Z,85.99
2022-11-29T22:24:50.275Z,86.05
2022-11-29T22:27:53.822Z,86.08
2022-11-29T22:31:03.764Z,86.26
2022-11-29T22:34:07.453Z,86.10
2022-11-29T22:37:11.876Z,86.09
2022-11-29T22:40:16.431Z,86.04
2022-11-29T22:43:19.795Z,86.07
2022-11-29T22:46:24.922Z,86.07
2022-11-29T22:49:29.398Z,85.98
2022-11-29T22:52:33.032Z,85.91
2022-11-29T22:55:36.302Z,86.02
2022-11-29T22:58:39.929Z,86.20
2022-11-29T23:01:43.798Z,86.20
2022-11-29T23:04:47.263Z,86.06
2022-11-29T23:07:55.112Z,86.19
2022-11-29T23:10:59.074Z,86.22
2022-11-29T23:14:02.442Z,86.08
2022-11-29T23:17:05.784Z,86.28
2022-11-29T23:20:11.277Z,86.10
2022-11-29T23:23:14.843Z,85.97
2022-11-29T23:26:20.447Z,86.06
2022-11-29T23:29:23.834Z,86.17
2022-11-29T23:32:27.274Z,86.12
2022-11-29T23:35:30.846Z,86.24
2022-11-29T23:38:34.596Z,86.25
2022-11-29T23:41:38.120Z,86.15
2022-11-29T23:44:41.597Z,86.18
2022-11-29T23:47:45.210Z,86.14
2022-11-29T23:50:48.606Z,86.09
2022-11-29T23:53:53.806Z,86.26
2022-11-29T23:56:57.229Z,86.28
